createdAt,value
2022-12-01T00:01:38.256Z,101431.63
2022-12-01T00:04:07.226Z,101427.59
2022-12-01T00:06:37.036Z,101434.28
2022-12-01T00:09:24.057Z,101433.61
2022-12-01T00:11:52.322Z,101437.67
2022-12-01T00:14:21.455Z,101437.88
2022-12-01T00:16:49.971Z,101417.65
2022-12-01T00:19:18.650Z,101435.11
2022-12-01T00:21:46.959Z,101435.42
2022-12-01T00:24:15.141Z,101437.70
2022-12-01T00:26:43.421Z,101426.20
2022-12-01T00:29:12.821Z,101436.23
2022-12-01T00:31:41.041Z,101434.04
2022-12-01T00:34:23.528Z,101434.20
2022-12-01T00:36:52.196Z,101435.79
2022-12-01T00:39:20.578Z,101433.75
2022-12-01T00:41:48.962Z,101417.54
2022-12-01T00:44:17.167Z,101429.08
2022-12-01T00:46:45.406Z,101426.95
2022-12-01T00:49:14.281Z,101427.84
2022-12-01T00:51:43.493Z,101424.84
2022-12-01T00:54:11.977Z,101426.63
2022-12-01T00:56:40.351Z,101431.79
2022-12-01T00:59:08.618Z,101428.35
2022-12-01T01:01:36.822Z,101428.77
2022-12-01T01:04:06.707Z,101422.39
2022-12-01T01:06:34.892Z,101421.59
2022-12-01T01:09:03.068Z,101425.48
2022-12-01T01:11:32.156Z,101422.17
2022-12-01T01:14:00.844Z,101418.46
2022-12-01T01:16:29.664Z,101420.92
2022-12-01T01:18:58.620Z,101421.14
2022-12-01T01:21:27.811Z,101413.69
2022-12-01T01:23:56.030Z,101415.80
2022-12-01T01:26:27.214Z,101416.02
2022-12-01T01:29:01.510Z,101413.27
2022-12-01T01:31:31.171Z,101411.60
2022-12-01T01:33:59.499Z,101408.33
2022-12-01T01:36:28.028Z,101405.59
2022-12-01T01:38:56.564Z,101405.98
2022-12-01T01:41:25.239Z,101405.59
2022-12-01T01:44:03.155Z,101406.27
2022-12-01T01:46:35.452Z,101402.38
2022-12-01T01:49:09.805Z,101400.44
2022-12-01T01:51:49.487Z,101398.92
2022-12-01T01:54:36.286Z,101400.75
2022-12-01T01:57:07.123Z,101401.55
2022-12-01T01:59:47.594Z,101402.73
2022-12-01T02:02:16.251Z,101399.64
2022-12-01T02:04:51.272Z,101398.36
2022-12-01T02:07:20.142Z,101395.69
2022-12-01T02:09:48.615Z,101395.55
2022-12-01T02:12:44.780Z,101393.84
2022-12-01T02:15:23.866Z,101397.38
2022-12-01T02:18:17.653Z,101394.69
2022-12-01T02:20:54.842Z,101395.93
2022-12-01T02:24:02.022Z,101397.18
2022-12-01T02:26:45.349Z,101397.44
2022-12-01T02:29:16.514Z,101400.89
2022-12-01T02:32:03.111Z,101401.39
2022-12-01T02:34:45.108Z,101402.62
2022-12-01T02:37:32.643Z,101401.23
2022-12-01T02:40:11.990Z,101401.28
2022-12-01T02:43:03.687Z,101400.02
2022-12-01T02:45:52.513Z,101398.58
2022-12-01T02:48:24.322Z,101391.23
2022-12-01T02:50:55.663Z,101389.45
2022-12-01T02:53:24.138Z,101386.36
2022-12-01T02:55:55.706Z,101381.45
2022-12-01T02:58:24.074Z,101380.08
2022-12-01T03:01:18.682Z,101379.77
2022-12-01T03:04:05.374Z,101382.88
2022-12-01T03:06:37.432Z,101377.77
2022-12-01T03:09:27.467Z,101380.41
2022-12-01T03:12:28.793Z,101377.61
2022-12-01T03:15:36.009Z,101373.88
2022-12-01T03:18:37.596Z,101369.63
2022-12-01T03:21:10.501Z,101362.13
2022-12-01T03:23:56.712Z,101360.96
2022-12-01T03:26:30.449Z,101359.46
2022-12-01T03:29:13.127Z,101355.17
2022-12-01T03:31:50.882Z,101361.26
2022-12-01T03:34:33.037Z,101360.82
2022-12-01T03:37:07.351Z,101362.63
2022-12-01T03:39:38.852Z,101361.84
2022-12-01T03:42:17.220Z,101367.15
2022-12-01T03:44:53.671Z,101370.08
2022-12-01T03:47:25.385Z,101368.48
2022-12-01T03:49:54.632Z,101373.46
2022-12-01T03:52:28.662Z,101366.75
2022-12-01T03:54:59.880Z,101355.59
2022-12-01T03:57:39.814Z,101373.28
2022-12-01T04:00:11.545Z,101366.64
2022-12-01T04:02:45.165Z,101370.95
2022-12-01T04:05:13.681Z,101371.46
2022-12-01T04:07:41.900Z,101367.98
2022-12-01T04:10:10.266Z,101349.84
2022-12-01T04:12:38.614Z,101367.81
2022-12-01T04:15:27.680Z,101368.59
2022-12-01T04:18:16.208Z,101370.63
2022-12-01T04:20:48.848Z,101372.15
2022-12-01T04:23:36.354Z,101371.84
2022-12-01T04:26:06.703Z,101374.21
2022-12-01T04:28:37.112Z,101375.42
2022-12-01T04:31:05.488Z,101371.95
2022-12-01T04:33:33.732Z,101371.91
2022-12-01T04:36:01.934Z,101367.47
2022-12-01T04:38:31.056Z,101368.30
2022-12-01T04:40:59.479Z,101359.96
2022-12-01T04:43:27.760Z,101365.60
2022-12-01T04:45:55.941Z,101369.67
2022-12-01T04:48:24.004Z,101375.13
2022-12-01T04:50:52.295Z,101379.77
2022-12-01T04:53:20.574Z,101383.39
2022-12-01T04:55:48.939Z,101381.80
2022-12-01T04:58:17.407Z,101385.39
2022-12-01T05:00:45.669Z,101382.34
2022-12-01T05:03:15.411Z,101380.81
2022-12-01T05:05:43.882Z,101377.73
2022-12-01T05:08:14.342Z,101384.70
2022-12-01T05:10:43.706Z,101384.14
2022-12-01T05:13:11.967Z,101385.34
2022-12-01T05:15:40.510Z,101381.08
2022-12-01T05:18:09.083Z,101381.02
2022-12-01T05:20:55.843Z,101379.83
2022-12-01T05:23:29.344Z,101378.66
2022-12-01T05:25:57.739Z,101375.53
2022-12-01T05:28:26.991Z,101377.27
2022-12-01T05:30:55.521Z,101375.90
2022-12-01T05:33:25.323Z,101379.95
2022-12-01T05:35:54.104Z,101376.90
2022-12-01T05:38:22.496Z,101378.80
2022-12-01T05:40:55.160Z,101385.33
2022-12-01T05:43:28.657Z,101384.70
2022-12-01T05:45:58.280Z,101382.23
2022-12-01T05:48:26.701Z,101382.08
2022-12-01T05:50:55.032Z,101385.02
2022-12-01T05:53:23.635Z,101385.26
2022-12-01T05:55:54.309Z,101385.27
2022-12-01T05:58:23.066Z,101382.16
2022-12-01T06:00:52.036Z,101379.66
2022-12-01T06:03:20.302Z,101385.77
2022-12-01T06:05:48.604Z,101383.31
2022-12-01T06:08:17.068Z,101389.40
2022-12-01T06:10:46.361Z,101374.73
2022-12-01T06:13:14.841Z,101377.64
2022-12-01T06:15:43.336Z,101393.66
2022-12-01T06:18:11.715Z,101394.31
2022-12-01T06:20:41.154Z,101393.14
2022-12-01T06:23:09.949Z,101392.13
2022-12-01T06:25:38.397Z,101389.24
2022-12-01T06:28:07.582Z,101392.88
2022-12-01T06:30:36.174Z,101392.16
2022-12-01T06:33:04.384Z,101393.64
2022-12-01T06:35:33.583Z,101395.66
2022-12-01T06:38:02.737Z,101391.60
2022-12-01T06:40:31.299Z,101394.48
2022-12-01T06:43:02.485Z,101396.02
2022-12-01T06:45:32.477Z,101395.44
2022-12-01T06:48:01.989Z,101395.98
2022-12-01T06:50:30.718Z,101393.20
2022-12-01T06:52:59.969Z,101392.48
2022-12-01T06:55:28.673Z,101391.97
2022-12-01T06:58:01.033Z,101398.13
2022-12-01T07:00:30.434Z,101396.23
2022-12-01T07:02:59.071Z,101396.16
2022-12-01T07:05:27.716Z,101399.92
2022-12-01T07:07:59.468Z,101402.77
2022-12-01T07:10:28.720Z,101392.48
2022-12-01T07:12:57.353Z,101410.35
2022-12-01T07:15:25.768Z,101412.16
2022-12-01T07:17:54.103Z,101412.63
2022-12-01T07:20:22.692Z,101417.09
2022-12-01T07:22:50.985Z,101415.64
2022-12-01T07:25:19.559Z,101417.13
2022-12-01T07:27:48.131Z,101413.45
2022-12-01T07:30:18.146Z,101411.32
2022-12-01T07:32:46.953Z,101411.23
2022-12-01T07:35:15.659Z,101404.45
2022-12-01T07:37:45.236Z,101408.83
2022-12-01T07:40:15.478Z,101408.00
2022-12-01T07:42:44.824Z,101411.73
2022-12-01T07:45:14.293Z,101408.44
2022-12-01T07:47:44.861Z,101411.44
2022-12-01T07:50:13.607Z,101415.85
2022-12-01T07:52:42.751Z,101425.64
2022-12-01T07:55:11.491Z,101427.40
2022-12-01T07:57:40.828Z,101428.67
2022-12-01T08:00:11.339Z,101426.98
2022-12-01T08:02:43.376Z,101424.14
2022-12-01T08:05:12.100Z,101428.09
2022-12-01T08:07:41.701Z,101422.86
2022-12-01T08:10:11.640Z,101425.39
2022-12-01T08:12:41.962Z,101424.18
2022-12-01T08:15:10.957Z,101423.55
2022-12-01T08:17:39.535Z,101421.76
2022-12-01T08:20:09.106Z,101423.30
2022-12-01T08:22:37.722Z,101420.98
2022-12-01T08:25:06.638Z,101422.11
2022-12-01T08:27:35.719Z,101418.02
2022-12-01T08:30:05.138Z,101419.36
2022-12-01T08:32:34.029Z,101417.39
2022-12-01T08:35:02.707Z,101416.22
2022-12-01T08:37:31.385Z,101418.56
2022-12-01T08:40:00.209Z,101415.34
2022-12-01T08:42:29.723Z,101414.70
2022-12-01T08:44:58.671Z,101419.39
2022-12-01T08:47:30.676Z,101418.84
2022-12-01T08:49:59.378Z,101418.06
2022-12-01T08:52:35.274Z,101420.19
2022-12-01T08:55:05.321Z,101420.89
2022-12-01T08:57:33.968Z,101416.79
2022-12-01T09:00:03.468Z,101421.54
2022-12-01T09:02:32.255Z,101426.38
2022-12-01T09:05:01.844Z,101422.92
2022-12-01T09:07:31.431Z,101422.00
2022-12-01T09:10:00.343Z,101424.02
2022-12-01T09:12:30.334Z,101422.55
2022-12-01T09:14:59.019Z,101423.72
2022-12-01T09:17:28.846Z,101423.50
2022-12-01T09:19:58.259Z,101421.55
2022-12-01T09:22:27.750Z,101425.02
2022-12-01T09:24:56.770Z,101425.66
2022-12-01T09:27:27.317Z,101424.29
2022-12-01T09:29:58.202Z,101422.38
2022-12-01T09:32:26.789Z,101423.96
2022-12-01T09:34:55.688Z,101418.52
2022-12-01T09:37:24.796Z,101421.52
2022-12-01T09:39:53.451Z,101418.30
2022-12-01T09:42:33.892Z,101414.48
2022-12-01T09:45:06.477Z,101415.46
2022-12-01T09:47:36.213Z,101412.42
2022-12-01T09:50:15.152Z,101408.49
2022-12-01T09:52:47.962Z,101406.44
2022-12-01T09:55:20.043Z,101399.92
2022-12-01T09:57:51.088Z,101396.83
2022-12-01T10:00:23.700Z,101391.92
2022-12-01T10:02:59.052Z,101388.99
2022-12-01T10:05:46.888Z,101386.89
2022-12-01T10:08:32.366Z,101387.52
2022-12-01T10:11:13.869Z,101388.05
2022-12-01T10:13:43.888Z,101387.23
2022-12-01T10:16:19.100Z,101383.17
2022-12-01T10:18:59.476Z,101386.74
2022-12-01T10:22:10.346Z,101388.36
2022-12-01T10:24:48.470Z,101384.46
2022-12-01T10:27:22.167Z,101384.29
2022-12-01T10:30:03.694Z,101381.64
2022-12-01T10:32:41.454Z,101380.84
2022-12-01T10:35:17.048Z,101379.55
2022-12-01T10:37:47.787Z,101376.86
2022-12-01T10:40:18.711Z,101373.58
2022-12-01T10:42:49.487Z,101371.79
2022-12-01T10:45:25.033Z,101369.79
2022-12-01T10:48:09.255Z,101360.42
2022-12-01T10:50:38.536Z,101357.42
2022-12-01T10:53:07.987Z,101367.61
2022-12-01T10:55:44.877Z,101365.54
2022-12-01T10:58:19.401Z,101364.89
2022-12-01T11:00:59.940Z,101365.55
2022-12-01T11:03:33.525Z,101362.02
2022-12-01T11:06:06.128Z,101358.90
2022-12-01T11:08:50.992Z,101357.19
2022-12-01T11:11:37.162Z,101350.41
2022-12-01T11:14:18.060Z,101351.13
2022-12-01T11:16:49.458Z,101349.14
2022-12-01T11:19:35.187Z,101349.82
2022-12-01T11:22:21.051Z,101346.60
2022-12-01T11:24:55.613Z,101345.56
2022-12-01T11:27:30.834Z,101348.23
2022-12-01T11:30:05.491Z,101345.77
2022-12-01T11:32:39.683Z,101347.17
2022-12-01T11:35:21.465Z,101342.77
2022-12-01T11:38:29.329Z,101344.39
2022-12-01T11:40:58.049Z,101344.56
2022-12-01T11:43:33.928Z,101342.27
2022-12-01T11:46:06.618Z,101339.35
2022-12-01T11:48:36.810Z,101339.77
2022-12-01T11:51:11.258Z,101341.49
2022-12-01T11:53:43.137Z,101338.70
2022-12-01T11:56:16.133Z,101338.14
2022-12-01T11:58:47.832Z,101341.36
2022-12-01T12:02:01.687Z,101335.46
2022-12-01T12:04:57.725Z,101335.44
2022-12-01T12:07:59.056Z,101336.36
2022-12-01T12:11:12.813Z,101336.83
2022-12-01T12:13:55.827Z,101339.80
2022-12-01T12:16:46.403Z,101338.39
2022-12-01T12:19:45.339Z,101337.88
2022-12-01T12:22:36.299Z,101339.13
2022-12-01T12:25:32.638Z,101333.83
2022-12-01T12:28:03.890Z,101330.20
2022-12-01T12:30:42.628Z,101329.68
2022-12-01T12:33:11.957Z,101326.38
2022-12-01T12:35:51.006Z,101327.39
2022-12-01T12:38:51.292Z,101330.55
2022-12-01T12:41:45.241Z,101310.05
2022-12-01T12:44:49.282Z,101328.34
2022-12-01T12:47:33.977Z,101333.84
2022-12-01T12:50:29.083Z,101328.82
2022-12-01T12:53:05.308Z,101330.92
2022-12-01T12:55:40.200Z,101334.08
2022-12-01T12:58:29.730Z,101322.52
2022-12-01T13:01:14.092Z,101334.71
2022-12-01T13:04:05.353Z,101335.79
2022-12-01T13:11:13.514Z,101336.34
2022-12-01T13:14:11.492Z,101335.70
2022-12-01T13:16:45.100Z,101332.52
2022-12-01T13:19:19.733Z,101336.73
2022-12-01T13:21:51.870Z,101332.48
2022-12-01T13:24:24.346Z,101336.21
2022-12-01T13:27:02.100Z,101334.66
2022-12-01T13:29:41.047Z,101322.86
2022-12-01T13:32:36.308Z,101338.49
2022-12-01T13:35:22.410Z,101344.98
2022-12-01T13:37:51.201Z,101347.29
2022-12-01T13:40:26.323Z,101345.56
2022-12-01T13:43:08.911Z,101347.21
2022-12-01T13:45:40.911Z,101347.10
2022-12-01T13:48:28.144Z,101347.33
2022-12-01T13:50:56.572Z,101348.36
2022-12-01T13:53:29.801Z,101346.72
2022-12-01T13:56:02.783Z,101347.89
2022-12-01T13:58:34.448Z,101351.48
2022-12-01T14:01:21.480Z,101338.77
2022-12-01T14:03:57.052Z,101343.98
2022-12-01T14:06:31.518Z,101343.88
2022-12-01T14:09:32.937Z,101343.06
2022-12-01T14:12:18.755Z,101342.30
2022-12-01T14:15:14.485Z,101342.99
2022-12-01T14:17:45.523Z,101343.05
2022-12-01T14:20:14.212Z,101341.86
2022-12-01T14:22:45.669Z,101343.92
2022-12-01T14:25:20.526Z,101345.26
2022-12-01T14:27:53.701Z,101346.43
2022-12-01T14:30:46.856Z,101344.46
2022-12-01T14:33:46.767Z,101340.42
2022-12-01T14:36:29.584Z,101344.04
2022-12-01T14:38:57.947Z,101342.37
2022-12-01T14:41:49.045Z,101344.70
2022-12-01T14:44:36.325Z,101345.15
2022-12-01T14:47:04.855Z,101341.63
2022-12-01T14:49:43.231Z,101338.05
2022-12-01T14:52:34.035Z,101329.10
2022-12-01T14:55:07.956Z,101339.30
2022-12-01T14:57:45.902Z,101342.62
2022-12-01T15:00:19.025Z,101337.59
2022-12-01T15:02:58.049Z,101337.03
2022-12-01T15:05:29.420Z,101333.19
2022-12-01T15:08:33.305Z,101328.21
2022-12-01T15:10:56.777Z,101332.05
2022-12-01T15:13:31.156Z,101332.89
2022-12-01T15:16:02.217Z,101329.13
2022-12-01T15:18:40.689Z,101330.73
2022-12-01T15:21:31.909Z,101323.20
2022-12-01T15:24:02.991Z,101325.97
2022-12-01T15:26:35.668Z,101323.96
2022-12-01T15:29:36.922Z,101319.59
2022-12-01T15:32:08.841Z,101316.93
2022-12-01T15:34:44.909Z,101319.80
2022-12-01T15:37:19.677Z,101318.54
2022-12-01T15:39:51.505Z,101321.36
2022-12-01T15:42:33.887Z,101322.67
2022-12-01T15:45:16.863Z,101321.76
2022-12-01T15:47:48.403Z,101324.30
2022-12-01T15:50:34.048Z,101320.11
2022-12-01T15:53:07.261Z,101317.52
2022-12-01T15:55:38.837Z,101319.77
2022-12-01T15:58:09.457Z,101319.59
2022-12-01T16:00:38.235Z,101322.66
2022-12-01T16:03:07.318Z,101319.05
2022-12-01T16:05:36.626Z,101319.48
2022-12-01T16:08:23.298Z,101316.84
2022-12-01T16:11:18.536Z,101316.27
2022-12-01T16:14:20.813Z,101320.62
2022-12-01T16:16:50.301Z,101320.59
2022-12-01T16:19:19.014Z,101323.48
2022-12-01T16:21:57.725Z,101327.80
2022-12-01T16:24:37.205Z,101326.81
2022-12-01T16:27:24.905Z,101326.20
2022-12-01T16:29:53.399Z,101327.51
2022-12-01T16:32:38.911Z,101323.16
2022-12-01T16:35:28.017Z,101319.02
2022-12-01T16:37:57.707Z,101317.59
2022-12-01T16:40:27.259Z,101297.20
2022-12-01T16:42:56.892Z,101316.85
2022-12-01T16:45:27.300Z,101319.84
2022-12-01T16:47:56.245Z,101320.58
2022-12-01T16:50:25.871Z,101320.64
2022-12-01T16:52:55.670Z,101316.39
2022-12-01T16:55:38.659Z,101316.33
2022-12-01T16:58:09.470Z,101316.02
2022-12-01T17:00:39.395Z,101317.00
2022-12-01T17:03:12.458Z,101319.46
2022-12-01T17:05:42.323Z,101312.14
2022-12-01T17:08:12.076Z,101316.55
2022-12-01T17:10:46.483Z,101314.35
2022-12-01T17:13:15.768Z,101313.61
2022-12-01T17:15:47.587Z,101315.55
2022-12-01T17:18:19.422Z,101317.34
2022-12-01T17:21:07.530Z,101312.40
2022-12-01T17:23:38.940Z,101316.63
2022-12-01T17:26:26.033Z,101314.20
2022-12-01T17:28:55.351Z,101316.31
2022-12-01T17:31:24.428Z,101315.00
2022-12-01T17:33:53.142Z,101312.54
2022-12-01T17:36:22.241Z,101309.52
2022-12-01T17:38:51.422Z,101302.42
2022-12-01T17:41:26.301Z,101312.30
2022-12-01T17:43:55.450Z,101315.96
2022-12-01T17:46:23.872Z,101315.93
2022-12-01T17:48:52.771Z,101317.77
2022-12-01T17:51:21.534Z,101315.92
2022-12-01T17:53:50.364Z,101312.48
2022-12-01T17:56:19.802Z,101313.27
2022-12-01T17:58:50.751Z,101313.84
2022-12-01T18:01:24.251Z,101310.26
2022-12-01T18:03:59.199Z,101310.51
2022-12-01T18:06:28.109Z,101310.30
2022-12-01T18:08:57.664Z,101312.29
2022-12-01T18:11:26.666Z,101315.69
2022-12-01T18:13:55.763Z,101314.93
2022-12-01T18:16:28.070Z,101322.36
2022-12-01T18:18:58.496Z,101324.74
2022-12-01T18:21:28.373Z,101321.73
2022-12-01T18:24:03.203Z,101319.42
2022-12-01T18:26:33.633Z,101322.11
2022-12-01T18:29:08.657Z,101319.14
2022-12-01T18:31:38.429Z,101320.56
2022-12-01T18:34:08.394Z,101318.53
2022-12-01T18:36:41.193Z,101318.02
2022-12-01T18:39:11.753Z,101310.84
2022-12-01T18:41:41.521Z,101312.75
2022-12-01T18:44:11.168Z,101312.00
2022-12-01T18:46:40.514Z,101314.69
2022-12-01T18:49:15.261Z,101314.50
2022-12-01T18:51:44.401Z,101308.83
2022-12-01T18:54:15.477Z,101315.63
2022-12-01T18:56:44.347Z,101314.95
2022-12-01T18:59:14.263Z,101310.98
2022-12-01T19:01:44.149Z,101307.66
2022-12-01T19:04:16.271Z,101307.01
2022-12-01T19:06:46.365Z,101305.57
2022-12-01T19:09:16.385Z,101306.95
2022-12-01T19:11:45.754Z,101306.23
2022-12-01T19:14:17.884Z,101304.66
2022-12-01T19:16:48.490Z,101303.48
2022-12-01T19:19:17.409Z,101302.23
2022-12-01T19:21:46.498Z,101301.27
2022-12-01T19:24:15.841Z,101303.00
2022-12-01T19:26:45.054Z,101303.58
2022-12-01T19:29:15.070Z,101303.69
2022-12-01T19:31:44.070Z,101301.05
2022-12-01T19:34:13.253Z,101304.20
2022-12-01T19:36:42.273Z,101287.17
2022-12-01T19:39:11.682Z,101305.36
2022-12-01T19:41:40.972Z,101305.70
2022-12-01T19:44:11.584Z,101305.86
2022-12-01T19:46:40.707Z,101305.06
2022-12-01T19:49:11.289Z,101295.58
2022-12-01T19:51:40.652Z,101304.15
2022-12-01T19:54:19.682Z,101307.52
2022-12-01T19:56:50.588Z,101307.48
2022-12-01T19:59:19.900Z,101305.96
2022-12-01T20:01:49.576Z,101303.43
2022-12-01T20:04:19.080Z,101284.74
2022-12-01T20:06:48.535Z,101301.40
2022-12-01T20:09:17.720Z,101303.59
2022-12-01T20:11:46.896Z,101290.68
2022-12-01T20:14:16.409Z,101282.66
2022-12-01T20:16:46.699Z,101297.77
2022-12-01T20:19:15.826Z,101294.61
2022-12-01T20:21:45.224Z,101297.02
2022-12-01T20:24:16.998Z,101294.83
2022-12-01T20:26:50.939Z,101297.19
2022-12-01T20:29:23.069Z,101293.66
2022-12-01T20:31:54.260Z,101300.13
2022-12-01T20:34:34.118Z,101294.23
2022-12-01T20:37:04.808Z,101292.30
2022-12-01T20:39:37.491Z,101284.48
2022-12-01T20:42:07.556Z,101289.34
2022-12-01T20:44:38.007Z,101290.27
2022-12-01T20:47:07.410Z,101289.38
2022-12-01T20:49:36.922Z,101290.67
2022-12-01T20:52:07.363Z,101290.58
2022-12-01T20:54:37.269Z,101293.21
2022-12-01T20:57:07.098Z,101290.60
2022-12-01T20:59:37.716Z,101290.90
2022-12-01T21:02:06.518Z,101291.98
2022-12-01T21:04:35.631Z,101295.66
2022-12-01T21:07:04.708Z,101294.98
2022-12-01T21:09:34.043Z,101293.42
2022-12-01T21:12:29.708Z,101288.91
2022-12-01T21:15:09.057Z,101289.04
2022-12-01T21:17:47.160Z,101291.63
2022-12-01T21:20:36.317Z,101292.91
2022-12-01T21:23:16.871Z,101295.30
2022-12-01T21:25:48.297Z,101293.79
2022-12-01T21:28:19.363Z,101299.96
2022-12-01T21:30:49.904Z,101298.81
2022-12-01T21:33:43.043Z,101295.22
2022-12-01T21:36:20.122Z,101296.33
2022-12-01T21:38:54.850Z,101296.56
2022-12-01T21:41:31.250Z,101297.09
2022-12-01T21:44:17.627Z,101292.35
2022-12-01T21:46:48.264Z,101282.70
2022-12-01T21:49:22.233Z,101292.30
2022-12-01T21:51:53.709Z,101292.52
2022-12-01T21:54:23.444Z,101295.38
2022-12-01T21:56:57.759Z,101280.04
2022-12-01T21:59:26.402Z,101293.48
2022-12-01T22:01:57.763Z,101293.94
2022-12-01T22:04:30.968Z,101289.33
2022-12-01T22:06:59.765Z,101289.05
2022-12-01T22:09:34.478Z,101291.19
2022-12-01T22:12:17.521Z,101291.04
2022-12-01T22:14:45.894Z,101277.71
2022-12-01T22:17:21.048Z,101268.56
2022-12-01T22:19:58.094Z,101285.31
2022-12-01T22:22:33.197Z,101286.70
2022-12-01T22:25:21.080Z,101282.08
2022-12-01T22:27:49.563Z,101279.22
2022-12-01T22:30:24.606Z,101283.23
2022-12-01T22:33:00.957Z,101283.01
2022-12-01T22:35:32.988Z,101282.60
2022-12-01T22:38:07.140Z,101283.60
2022-12-01T22:40:38.655Z,101282.89
2022-12-01T22:43:16.192Z,101284.43
2022-12-01T22:45:54.034Z,101284.39
2022-12-01T22:48:22.433Z,101280.24
2022-12-01T22:50:52.055Z,101279.19
2022-12-01T22:53:31.136Z,101279.42
2022-12-01T22:56:01.765Z,101279.40
2022-12-01T22:58:31.957Z,101281.47
2022-12-01T23:01:15.407Z,101281.95
2022-12-01T23:03:44.058Z,101281.42
2022-12-01T23:06:52.181Z,101279.40
2022-12-01T23:09:28.341Z,101279.20
2022-12-01T23:12:02.495Z,101273.92
2022-12-01T23:14:30.865Z,101269.91
2022-12-01T23:17:07.657Z,101264.02
2022-12-01T23:19:35.916Z,101262.86
2022-12-01T23:22:04.615Z,101257.35
2022-12-01T23:24:34.186Z,101255.84
2022-12-01T23:27:02.594Z,101251.55
2022-12-01T23:29:31.388Z,101252.10
2022-12-01T23:31:59.653Z,101248.38
2022-12-01T23:34:28.652Z,101246.36
2022-12-01T23:36:57.858Z,101245.72
2022-12-01T23:39:32.288Z,101247.31
2022-12-01T23:42:00.585Z,101240.30
2022-12-01T23:44:34.769Z,101242.85
2022-12-01T23:47:03.846Z,101242.78
2022-12-01T23:49:34.802Z,101242.58
2022-12-01T23:52:03.793Z,101241.83
2022-12-01T23:54:35.142Z,101240.71
2022-12-01T23:57:24.594Z,101237.77
